Spokane, WA

3:06 AM PDT on September 19, 2014 (GMT -0700)
Fairchild Air Force Base | Change Station
CLOSE
Current Station
Airport
Location: Spokane Fairchild,
Elevation: 2461 ft
Nearby Weather Stations

Elev 2461 ft 47.62 °N, 117.66 °W | Updated 8 minutes ago

Overcast
Overcast
55 °F
Feels Like 55 °F
N
16
Wind Variable Wind from SSW

Today
High -- | Low -- °F
--% Chance of Precip.
Yesterday
High -- | Low -- °F
Precip. -- in
6:33 AM 6:54 PM
Waning Crescent, 20% visible
Pressure 29.91 in
Visibility 10.0 miles
Clouds Overcast 6500 ft
Dew Point 48 °F
Humidity 77%
Rainfall 0.00 in
Snow Depth 0 in
UV 0 out of 12
Pollen 7.40 out of 12
PM2.5 Good
Flu Activity Not available.
METAR KSKA 190958Z AUTO 21014KT 10SM OVC065 13/09 A2993 RMK AO2 SLP127 T01300090

More Conditions Fewer Conditions

Pressure 29.91 in
Visibility 10.0 miles
Clouds Overcast 6500 ft
Dew Point 48 °F
Humidity 77%
Rainfall 0.00 in
Snow Depth 0 in
UV 0 out of 12
Pollen 7.40 out of 12
PM2.5 Good
Flu Activity Not available.
METAR KSKA 190958Z AUTO 21014KT 10SM OVC065 13/09 A2993 RMK AO2 SLP127 T01300090

More Conditions Fewer Conditions

10-Day Weather Forecast

Almanac

Astronomy

Sep. 19, 2014 Rise Set
Actual Time 6:33 AM PDT 6:54 PM PDT
Civil Twilight 6:02 AM PDT 7:24 PM PDT
Nautical Twilight 5:25 AM PDT 8:01 PM PDT
Astronomical Twilight 4:48 AM PDT 8:39 PM PDT
Moon 2:08 AM PDT 4:38 PM PDT
Length of Visible Light 13h 22m
Length of Day
12h 20m
Tomorrow will be 3m 24s shorter.
Waning Crescent, 20% of the Moon is Illuminated
Today
Waning Crescent
Sep 24
New
Oct 1
First Quarter
Oct 8
Full
Oct 15
Last Quarter

Today's Extremes

State Highs State Lows

Community

WunderPhotos

Upload Photos

1,754,583 photos uploaded!

Nearby

Air Quality

  Air Quality AQ Index Pollutant
Yesterday Moderate
PM10
Yesterday Good
OZONE
Current Good
PM2.5
Friday Good
PM10
Friday Good
OZONE
Saturday Good
PM10
Saturday Good
OZONE
Sunday Good
PM10
Sunday Good
OZONE

Snow Depth

Station Depth Elevation
Mount Gardner 0 in 3000 ft
Potato Hill 0 in 4500 ft
Burnt Mountain 0 in 4200 ft
Stevens Pass 0 in 4070 ft
Fish Lake 0 in 3371 ft

Earthquake Activity

City Distance Mag. Time & Date
No recent earthquake activity has been reported nearby.
Minimum magnitude displayed is 2.5.

Coastal Water Temperatures

Place Temperature
No Stations Reporting

Nearby Weather Stations